Time;durP1;ratioP1;P1;durP2;ratioP2;P2;SDS_P1;SDS_P2;PMS_P1;PMS_P2;Temp;Humidity;BMP_temperature;BMP_pressure;BME280_temperature;BME280_humidity;BME280_pressure;Samples;Min_cycle;Max_cycle;Signal;HPM_P1;HPM_P2
2023/05/02 00:01:06;;;;;;;13.05;5.30;;;9.90;99.90;;;;;;6214933;23;20024;-88
2023/05/02 00:03:32;;;;;;;17.13;5.70;;;9.80;99.90;;;;;;6214883;23;20013;-89
2023/05/02 00:05:59;;;;;;;19.05;5.15;;;9.80;99.90;;;;;;6214810;23;20031;-89
2023/05/02 00:08:25;;;;;;;14.55;4.90;;;9.80;99.90;;;;;;6214291;23;20031;-88
2023/05/02 00:10:51;;;;;;;18.00;5.55;;;9.80;99.90;;;;;;6214032;23;20382;-89
2023/05/02 00:13:16;;;;;;;24.95;5.80;;;9.80;99.90;;;;;;6215170;23;20016;-88
2023/05/02 00:15:42;;;;;;;16.35;5.80;;;9.80;99.90;;;;;;6215063;23;20012;-88
2023/05/02 00:18:08;;;;;;;19.83;5.72;;;9.70;99.90;;;;;;6213953;23;20042;-88
2023/05/02 00:20:33;;;;;;;17.75;5.22;;;9.70;99.90;;;;;;6213405;23;20038;-89
2023/05/02 00:22:59;;;;;;;17.60;5.13;;;9.90;99.90;;;;;;6213998;23;20016;-88
2023/05/02 00:25:25;;;;;;;15.38;5.72;;;9.70;99.90;;;;;;6213643;23;20017;-88
2023/05/02 00:27:51;;;;;;;17.85;5.63;;;9.70;99.90;;;;;;6241096;23;20453;-89
2023/05/02 00:30:17;;;;;;;19.02;5.78;;;9.70;99.90;;;;;;6214218;23;20467;-89
2023/05/02 00:32:43;;;;;;;23.38;5.63;;;9.70;99.90;;;;;;6214275;23;20023;-88
2023/05/02 00:35:09;;;;;;;20.60;5.70;;;9.70;99.90;;;;;;6213058;23;20020;-88
2023/05/02 00:37:35;;;;;;;20.17;5.40;;;9.70;99.90;;;;;;6213557;23;20413;-89
2023/05/02 00:40:02;;;;;;;15.98;5.20;;;9.70;99.90;;;;;;6215040;23;20019;-88
2023/05/02 00:42:30;;;;;;;18.90;5.03;;;9.70;99.90;;;;;;6213791;23;20019;-88
2023/05/02 00:44:56;;;;;;;16.25;4.68;;;9.70;99.90;;;;;;6213915;23;20016;-88
2023/05/02 00:47:22;;;;;;;14.75;4.40;;;9.80;99.90;;;;;;6239138;23;20020;-88
2023/05/02 00:49:49;;;;;;;17.00;4.88;;;9.70;99.90;;;;;;6215055;23;20012;-89
2023/05/02 00:52:15;;;;;;;18.88;4.57;;;9.70;99.90;;;;;;6212343;23;20027;-89
2023/05/02 00:54:41;;;;;;;15.43;4.32;;;9.90;99.90;;;;;;6213470;23;20024;-89
2023/05/02 00:57:07;;;;;;;14.73;4.00;;;9.70;99.90;;;;;;6214609;23;20352;-89
2023/05/02 00:59:35;;;;;;;14.15;4.68;;;9.70;99.90;;;;;;6213111;23;20020;-89
2023/05/02 01:02:20;;;;;;;14.75;4.40;;;9.80;99.90;;;;;;6214452;23;20012;-88
2023/05/02 01:04:53;;;;;;;9.65;4.13;;;9.80;99.90;;;;;;6214643;23;20445;-89
2023/05/02 01:07:25;;;;;;;14.88;5.18;;;9.80;99.90;;;;;;6213336;23;20020;-88
2023/05/02 01:10:18;;;;;;;19.92;4.28;;;9.70;99.90;;;;;;6214112;23;20016;-89
2023/05/02 01:13:07;;;;;;;15.02;4.38;;;9.70;99.90;;;;;;6213580;23;20020;-89
2023/05/02 01:15:35;;;;;;;11.88;4.25;;;9.70;99.90;;;;;;6213614;23;20028;-89
2023/05/02 01:18:03;;;;;;;13.52;4.70;;;9.70;99.90;;;;;;6214043;23;20273;-88
2023/05/02 01:20:31;;;;;;;10.80;4.10;;;9.70;99.90;;;;;;6212411;23;20027;-89
2023/05/02 01:23:06;;;;;;;18.10;4.40;;;9.70;99.90;;;;;;6213782;23;20008;-88
2023/05/02 01:25:48;;;;;;;15.00;4.63;;;9.70;99.90;;;;;;6213604;23;20016;-88
2023/05/02 01:28:32;;;;;;;16.85;4.85;;;9.60;99.90;;;;;;6213014;23;20020;-89
2023/05/02 01:30:58;;;;;;;;;;;9.60;99.90;;;;;;6214678;23;20449;-88
2023/05/02 01:33:26;;;;;;;27.10;5.57;;;9.50;99.90;;;;;;6239134;23;19926;-89
2023/05/02 01:35:52;;;;;;;22.73;5.28;;;9.40;99.90;;;;;;6213672;23;20051;-90
2023/05/02 01:38:22;;;;;;;28.42;5.25;;;9.30;99.90;;;;;;6214577;23;20095;-90
2023/05/02 01:41:39;;;;;;;25.95;4.95;;;9.20;99.90;;;;;;6214360;23;20020;-90
2023/05/02 01:44:25;;;;;;;24.38;4.97;;;9.00;99.90;;;;;;6158157;23;20095;-90
2023/05/02 01:46:53;;;;;;;28.15;4.70;;;8.80;99.90;;;;;;6189827;23;20055;-90
2023/05/02 01:49:22;;;;;;;23.58;4.72;;;8.80;99.90;;;;;;6214343;23;20086;-90
2023/05/02 01:51:49;;;;;;;25.27;4.72;;;8.60;99.90;;;;;;6213802;23;20012;-90
2023/05/02 01:54:17;;;;;;;28.23;5.20;;;8.60;99.90;;;;;;6214744;23;20024;-90
2023/05/02 01:56:44;;;;;;;28.17;5.35;;;8.60;99.90;;;;;;6213849;23;20047;-90
2023/05/02 01:59:13;;;;;;;24.08;4.20;;;8.50;99.90;;;;;;6215047;23;20027;-91
2023/05/02 02:01:42;;;;;;;24.75;5.70;;;8.40;99.90;;;;;;6214054;23;20272;-90
2023/05/02 02:04:10;;;;;;;24.70;5.72;;;8.90;99.90;;;;;;6213426;23;20460;-90
2023/05/02 02:06:36;;;;;;;30.80;6.03;;;8.40;99.90;;;;;;6214835;23;20059;-91
2023/05/02 02:09:02;;;;;;;33.25;6.53;;;8.40;99.90;;;;;;6216253;23;20038;-91
2023/05/02 02:11:36;;;;;;;35.13;5.47;;;8.40;99.90;;;;;;6216394;23;20047;-90
2023/05/02 02:14:10;;;;;;;34.20;5.53;;;8.40;99.90;;;;;;6217718;23;20024;-90
2023/05/02 02:16:41;;;;;;;39.05;6.07;;;8.40;99.90;;;;;;6215577;23;20020;-92
2023/05/02 02:19:11;;;;;;;33.10;5.85;;;8.40;99.90;;;;;;6218297;23;20027;-92
2023/05/02 02:21:39;;;;;;;30.27;5.88;;;8.40;99.90;;;;;;6225309;23;20012;-91
2023/05/02 02:24:19;;;;;;;28.67;5.65;;;8.30;99.90;;;;;;6243345;23;20099;-91
2023/05/02 02:26:45;;;;;;;33.88;6.90;;;8.30;99.90;;;;;;6217508;23;20095;-91
2023/05/02 02:29:11;;;;;;;30.17;5.45;;;8.20;99.90;;;;;;6217373;23;20479;-91
2023/05/02 02:31:38;;;;;;;25.58;5.10;;;8.10;99.90;;;;;;6215566;23;20063;-91
2023/05/02 02:34:07;;;;;;;34.90;6.10;;;8.10;99.90;;;;;;6217253;23;20020;-91
2023/05/02 02:37:09;;;;;;;34.50;5.78;;;8.10;99.90;;;;;;6216325;23;20130;-91
2023/05/02 02:39:57;;;;;;;32.53;5.38;;;8.10;99.90;;;;;;6216632;23;20023;-91
2023/05/02 02:42:38;;;;;;;;;;;;;;;;;;;;;
2023/05/02 02:45:37;;;;;;;34.88;6.22;;;8.00;99.90;;;;;;6241726;23;20055;-91
2023/05/02 02:51:30;;;;;;;24.10;4.68;;;8.30;99.90;;;;;;6241149;23;20024;-90
2023/05/02 02:54:22;;;;;;;31.65;5.10;;;7.90;99.90;;;;;;6216194;23;20016;-91
2023/05/02 02:57:01;;;;;;;23.58;4.63;;;7.80;99.90;;;;;;6216879;23;20020;-90
2023/05/02 03:02:49;;;;;;;22.17;4.65;;;7.80;99.90;;;;;;6241821;23;20091;-90
2023/05/02 03:05:23;;;;;;;28.65;4.90;;;7.70;99.90;;;;;;6215470;23;20497;-89
2023/05/02 03:10:51;;;;;;;22.60;4.53;;;7.70;99.90;;;;;;6241935;23;20028;-90
2023/05/02 03:14:06;;;;;;;25.77;4.68;;;7.70;99.90;;;;;;6217100;23;20027;-90
2023/05/02 03:16:47;;;;;;;;;;;;;;;;;;;;;
2023/05/02 03:19:31;;;;;;;18.20;4.05;;;7.00;99.90;;;;;;6240506;23;20097;-89
2023/05/02 03:22:22;;;;;;;16.17;3.08;;;7.40;99.90;;;;;;6198869;23;20024;-89
2023/05/02 03:25:15;;;;;;;25.23;4.13;;;8.00;99.90;;;;;;6216918;23;20024;-90
2023/05/02 03:31:26;;;;;;;21.55;4.03;;;7.40;99.90;;;;;;6146021;23;20024;-89
2023/05/02 03:44:10;;;;;;;17.75;3.30;;;7.00;99.90;;;;;;6261889;22;20383;-89
2023/05/02 03:53:29;;;;;;;;;;;;;;;;;;;;;
2023/05/02 03:57:14;;;;;;;;;;;;;;;;;;;;;
2023/05/02 03:59:44;;;;;;;16.88;2.53;;;7.00;99.90;;;;;;6245044;22;20063;-89
2023/05/02 04:02:11;;;;;;;13.65;2.67;;;7.20;99.90;;;;;;6219780;22;20436;-89
2023/05/02 04:04:37;;;;;;;14.80;2.25;;;7.20;99.90;;;;;;6194474;22;20020;-89
2023/05/02 04:07:04;;;;;;;14.32;2.90;;;7.20;99.90;;;;;;6214767;23;20016;-90
2023/05/02 04:09:52;;;;;;;13.23;2.60;;;7.20;99.90;;;;;;6213412;23;20024;-89
2023/05/02 04:12:33;;;;;;;15.50;2.40;;;7.20;99.90;;;;;;6167120;23;20106;-89
2023/05/02 04:14:58;;;;;;;13.80;2.30;;;7.20;99.90;;;;;;6214175;23;20023;-88
2023/05/02 04:17:27;;;;;;;11.25;2.47;;;7.20;99.90;;;;;;6213638;23;20016;-90
2023/05/02 04:20:21;;;;;;;9.02;2.08;;;7.20;99.90;;;;;;6214577;23;20239;-88
2023/05/02 04:23:14;;;;;;;12.57;1.95;;;6.80;99.90;;;;;;6164269;23;20016;-89
2023/05/02 04:25:40;;;;;;;10.73;1.75;;;7.20;99.90;;;;;;6214265;23;20020;-88
2023/05/02 04:28:30;;;;;;;11.27;2.05;;;7.20;99.90;;;;;;6215920;23;20058;-90
2023/05/02 04:39:10;;;;;;;8.73;1.50;;;6.40;99.90;;;;;;6238516;23;20356;-89
2023/05/02 04:41:18;;;;;;;8.32;2.20;;;7.10;99.90;;;;;;6225228;23;20020;-88
2023/05/02 04:43:46;;;;;;;7.88;1.58;;;7.10;99.90;;;;;;6213730;23;20095;-88
2023/05/02 04:46:37;;;;;;;9.48;1.70;;;7.10;99.90;;;;;;6214285;23;20008;-89
2023/05/02 04:49:09;;;;;;;8.85;2.15;;;7.10;99.90;;;;;;6239262;23;20081;-88
2023/05/02 04:52:06;;;;;;;10.95;2.03;;;7.20;99.90;;;;;;6212891;23;20103;-89
2023/05/02 04:54:33;;;;;;;10.63;1.92;;;6.90;99.90;;;;;;6213470;23;20012;-89
2023/05/02 04:57:08;;;;;;;;;;;;;;;;;;;;;
2023/05/02 05:06:51;;;;;;;19.52;2.70;;;6.50;99.90;;;;;;6166585;23;20606;-89
2023/05/02 05:09:17;;;;;;;13.27;3.15;;;7.10;99.90;;;;;;6188389;23;20016;-90
2023/05/02 05:11:45;;;;;;;17.63;3.15;;;7.80;99.90;;;;;;6186711;23;20057;-89
2023/05/02 05:14:11;;;;;;;17.50;3.30;;;7.10;99.90;;;;;;6188345;23;20374;-89
2023/05/02 05:24:40;;;;;;;14.82;3.10;;;7.30;99.90;;;;;;6219899;23;20036;-90
2023/05/02 05:27:30;;;;;;;20.27;3.63;;;7.20;99.90;;;;;;6148092;23;20020;-91
2023/05/02 05:30:31;;;;;;;16.75;3.30;;;7.20;99.90;;;;;;6214798;23;20016;-90
2023/05/02 05:33:33;;;;;;;17.75;3.38;;;7.20;99.90;;;;;;6123659;23;20114;-90
2023/05/02 05:36:16;;;;;;;;;;;;;;;;;;;;;
2023/05/02 05:39:17;;;;;;;;;;;;;;;;;;;;;
2023/05/02 05:46:13;;;;;;;21.33;3.50;;;7.20;99.90;;;;;;6159375;23;20102;-89
2023/05/02 05:48:41;;;;;;;22.52;4.15;;;7.20;99.90;;;;;;6153172;23;20020;-89
2023/05/02 05:51:09;;;;;;;15.93;3.42;;;7.20;99.90;;;;;;6153723;23;20124;-90
2023/05/02 05:53:35;;;;;;;15.75;3.80;;;7.20;99.90;;;;;;6143378;23;20020;-90
2023/05/02 05:56:34;;;;;;;13.80;2.67;;;6.60;99.90;;;;;;6208303;22;20476;-90
2023/05/02 05:59:02;;;;;;;12.50;2.30;;;7.20;99.90;;;;;;6215462;23;20058;-90
2023/05/02 06:01:28;;;;;;;16.70;3.05;;;7.80;99.90;;;;;;6214685;23;20068;-90
2023/05/02 06:07:21;;;;;;;14.20;3.03;;;7.30;99.90;;;;;;6226571;22;20085;-96
2023/05/02 06:09:47;;;;;;;15.23;2.78;;;7.30;99.90;;;;;;6217890;23;20035;-88
2023/05/02 06:12:15;;;;;;;13.98;2.90;;;7.30;99.90;;;;;;6215038;22;20015;-89
2023/05/02 06:15:27;;;;;;;15.13;3.25;;;7.30;99.90;;;;;;6219576;22;20030;-88
2023/05/02 06:17:54;;;;;;;21.70;3.60;;;7.40;99.90;;;;;;6193826;22;20472;-89
2023/05/02 06:20:20;;;;;;;17.58;3.55;;;7.40;99.90;;;;;;6217412;22;20019;-91
2023/05/02 06:22:48;;;;;;;16.98;2.75;;;7.40;99.90;;;;;;6219133;22;20061;-89
2023/05/02 06:25:17;;;;;;;17.83;2.95;;;7.50;99.90;;;;;;6220081;22;20514;-89
2023/05/02 06:27:42;;;;;;;14.60;3.10;;;7.50;99.90;;;;;;6218338;22;20023;-88
2023/05/02 06:30:08;;;;;;;16.88;2.95;;;7.50;99.90;;;;;;6217321;22;20020;-88
2023/05/02 06:32:41;;;;;;;12.00;3.15;;;7.50;99.90;;;;;;6218338;22;20016;-90
2023/05/02 06:35:17;;;;;;;9.98;2.63;;;7.50;99.90;;;;;;6246940;22;20423;-88
2023/05/02 06:37:45;;;;;;;14.35;2.47;;;7.50;99.90;;;;;;6218121;22;20004;-89
2023/05/02 06:40:12;;;;;;;12.52;2.72;;;7.50;99.90;;;;;;6219677;22;20024;-86
2023/05/02 06:42:38;;;;;;;15.23;3.15;;;7.60;99.90;;;;;;6217266;22;20098;-87
2023/05/02 06:45:04;;;;;;;9.18;2.85;;;7.90;99.90;;;;;;6243557;22;20047;-88
2023/05/02 06:47:42;;;;;;;13.07;3.08;;;7.60;99.90;;;;;;6218267;22;20085;-88
2023/05/02 06:50:13;;;;;;;19.30;3.50;;;7.60;99.90;;;;;;6217931;22;20454;-88
2023/05/02 06:52:44;;;;;;;16.65;2.47;;;6.90;99.90;;;;;;6219996;22;20432;-88
2023/05/02 06:55:11;;;;;;;14.95;3.85;;;7.70;99.90;;;;;;6220157;22;20015;-88
2023/05/02 06:57:36;;;;;;;10.73;2.70;;;8.20;99.90;;;;;;6220229;22;20098;-88
2023/05/02 07:00:05;;;;;;;11.98;2.60;;;7.80;99.90;;;;;;6220299;22;20055;-87
2023/05/02 07:02:38;;;;;;;16.80;3.35;;;7.60;99.90;;;;;;6219670;22;20099;-87
2023/05/02 07:05:07;;;;;;;;;;;7.80;99.90;;;;;;6218873;22;20016;-88
2023/05/02 07:07:33;;;;;;;18.45;2.75;;;7.90;99.90;;;;;;6219984;22;19919;-88
2023/05/02 07:09:59;;;;;;;12.63;2.72;;;8.00;99.90;;;;;;6214939;23;20016;-86
2023/05/02 07:12:25;;;;;;;13.32;2.67;;;8.10;99.90;;;;;;6213919;23;20024;-88
2023/05/02 07:14:51;;;;;;;12.15;2.67;;;8.10;99.90;;;;;;6215305;23;20004;-87
2023/05/02 07:17:17;;;;;;;13.13;3.10;;;8.20;99.90;;;;;;6214548;23;20449;-87
2023/05/02 07:19:44;;;;;;;12.60;2.30;;;8.30;99.90;;;;;;6213930;23;20012;-88
2023/05/02 07:22:09;;;;;;;14.65;2.88;;;8.30;99.90;;;;;;6213340;23;20463;-87
2023/05/02 07:24:40;;;;;;;18.77;4.00;;;8.40;99.90;;;;;;6214812;23;20047;-87
2023/05/02 07:27:07;;;;;;;15.57;2.80;;;8.40;99.90;;;;;;6213759;23;20015;-87
2023/05/02 07:29:42;;;;;;;11.20;2.65;;;8.40;99.90;;;;;;6214377;23;20066;-88
2023/05/02 07:32:07;;;;;;;18.67;3.28;;;8.40;99.90;;;;;;6215014;23;20022;-88
2023/05/02 07:34:33;;;;;;;14.88;3.08;;;8.50;99.90;;;;;;6214852;23;20020;-88
2023/05/02 07:36:59;;;;;;;11.75;2.80;;;8.50;99.90;;;;;;6213941;23;20020;-87
2023/05/02 07:39:25;;;;;;;17.40;2.67;;;8.50;99.90;;;;;;6213807;23;20028;-88
2023/05/02 07:41:53;;;;;;;11.75;3.13;;;8.60;99.90;;;;;;6215554;23;20039;-88
2023/05/02 07:44:18;;;;;;;8.68;2.80;;;9.40;99.90;;;;;;6214658;23;20024;-87
2023/05/02 07:46:44;;;;;;;19.02;3.00;;;8.70;99.90;;;;;;6214612;23;20122;-87
2023/05/02 07:49:10;;;;;;;21.63;2.38;;;8.70;99.90;;;;;;6239505;23;20449;-88
2023/05/02 07:51:36;;;;;;;13.98;2.72;;;8.80;99.90;;;;;;6213443;23;20016;-88
2023/05/02 07:54:02;;;;;;;10.05;2.65;;;8.90;99.90;;;;;;6214392;23;20016;-87
2023/05/02 07:56:29;;;;;;;9.93;2.10;;;8.90;99.90;;;;;;6238720;23;20099;-86
2023/05/02 07:58:54;;;;;;;10.68;2.47;;;9.00;99.90;;;;;;6239899;23;20020;-87
2023/05/02 08:01:20;;;;;;;8.57;1.88;;;9.10;99.90;;;;;;6212470;23;20449;-87
2023/05/02 08:03:47;;;;;;;7.00;1.83;;;9.30;99.90;;;;;;6214060;23;20012;-87
2023/05/02 08:06:13;;;;;;;8.93;1.50;;;9.40;99.90;;;;;;6213232;23;20020;-88
2023/05/02 08:08:42;;;;;;;5.68;1.20;;;9.40;99.90;;;;;;6213699;23;20023;-89
2023/05/02 08:11:07;;;;;;;11.00;1.77;;;9.50;99.90;;;;;;6215051;23;20024;-88
2023/05/02 08:13:40;;;;;;;11.80;2.00;;;9.60;99.90;;;;;;6214409;23;20101;-89
2023/05/02 08:16:07;;;;;;;6.25;1.45;;;9.70;99.90;;;;;;6214764;23;20022;-88
2023/05/02 08:18:33;;;;;;;8.55;1.15;;;9.80;99.90;;;;;;6214067;23;20034;-89
2023/05/02 08:20:58;;;;;;;16.70;1.63;;;9.80;99.90;;;;;;6213673;23;20020;-88
2023/05/02 08:23:24;;;;;;;8.77;1.55;;;9.80;99.90;;;;;;6212352;23;20082;-88
2023/05/02 08:25:50;;;;;;;8.13;1.20;;;9.80;99.90;;;;;;6214557;23;20066;-88
2023/05/02 08:28:17;;;;;;;7.28;1.30;;;9.90;99.90;;;;;;6214633;23;20008;-88
2023/05/02 08:30:46;;;;;;;9.77;1.33;;;9.90;99.90;;;;;;6213295;23;20125;-88
2023/05/02 08:33:11;;;;;;;5.43;1.00;;;10.00;99.90;;;;;;6214590;23;20094;-88
2023/05/02 08:35:46;;;;;;;4.63;1.13;;;9.90;99.90;;;;;;6212331;23;20043;-88
2023/05/02 08:38:12;;;;;;;7.88;1.45;;;10.00;99.90;;;;;;6214541;23;20506;-89
2023/05/02 08:40:43;;;;;;;5.50;1.20;;;10.10;99.90;;;;;;6214816;23;20020;-89
2023/05/02 08:43:10;;;;;;;6.70;1.40;;;10.10;99.90;;;;;;6214318;23;20105;-89
2023/05/02 08:45:41;;;;;;;5.82;1.13;;;10.10;99.90;;;;;;6214607;23;20016;-88
2023/05/02 08:48:10;;;;;;;4.75;1.17;;;10.30;99.90;;;;;;6214646;23;20012;-87
2023/05/02 08:50:38;;;;;;;6.07;1.20;;;10.60;99.90;;;;;;6212581;23;20020;-87
2023/05/02 08:53:05;;;;;;;6.65;1.05;;;10.80;99.90;;;;;;6214992;23;20016;-87
2023/05/02 08:55:39;;;;;;;6.13;1.27;;;10.80;99.90;;;;;;6214170;23;20024;-89
2023/05/02 08:58:07;;;;;;;6.28;1.20;;;10.50;99.90;;;;;;6213537;23;20013;-88
2023/05/02 09:00:39;;;;;;;7.15;0.90;;;10.50;99.90;;;;;;6212678;23;20027;-88
2023/05/02 09:03:27;;;;;;;9.90;1.58;;;10.60;99.90;;;;;;6214102;23;20027;-88
2023/05/02 09:06:02;;;;;;;10.20;1.40;;;10.80;99.90;;;;;;6212183;23;20016;-88
2023/05/02 09:08:27;;;;;;;15.10;1.30;;;10.70;99.90;;;;;;6238760;23;20024;-88
2023/05/02 09:10:54;;;;;;;6.65;1.40;;;10.60;99.90;;;;;;6213190;23;20025;-88
2023/05/02 09:13:32;;;;;;;7.90;1.23;;;10.50;99.90;;;;;;6213438;23;20023;-87
2023/05/02 09:16:02;;;;;;;7.80;1.13;;;10.40;99.90;;;;;;6214064;23;20023;-87
2023/05/02 09:18:29;;;;;;;8.23;1.30;;;10.30;99.90;;;;;;6212521;23;20019;-87
2023/05/02 09:20:57;;;;;;;7.35;1.33;;;10.30;99.90;;;;;;6213222;23;20103;-87
2023/05/02 09:23:33;;;;;;;7.32;1.10;;;10.30;99.90;;;;;;6213537;23;20110;-88
2023/05/02 09:26:00;;;;;;;13.57;1.95;;;10.30;99.90;;;;;;6212721;23;20016;-87
2023/05/02 09:28:40;;;;;;;11.10;1.75;;;10.30;99.90;;;;;;6213341;23;20020;-87
2023/05/02 09:31:09;;;;;;;9.82;1.52;;;10.30;99.90;;;;;;6213754;23;20067;-87
2023/05/02 09:33:37;;;;;;;5.95;1.30;;;10.20;99.90;;;;;;6237832;23;20039;-87
2023/05/02 09:36:03;;;;;;;6.22;1.58;;;10.10;99.90;;;;;;6213409;23;20023;-87
2023/05/02 09:38:29;;;;;;;6.50;0.82;;;10.20;99.90;;;;;;6213905;23;20090;-88
2023/05/02 09:41:02;;;;;;;12.65;1.48;;;10.20;99.90;;;;;;6212710;23;20078;-90
2023/05/02 09:43:28;;;;;;;;;;;10.10;99.90;;;;;;6214315;23;20042;-87
2023/05/02 09:46:08;;;;;;;10.75;1.33;;;10.10;99.90;;;;;;6213516;23;20332;-88
2023/05/02 09:48:53;;;;;;;5.30;1.05;;;10.10;99.90;;;;;;6213497;23;20020;-87
2023/05/02 09:51:30;;;;;;;5.47;1.35;;;10.10;99.90;;;;;;6213010;23;20377;-87
2023/05/02 09:53:55;;;;;;;7.03;1.27;;;10.30;99.90;;;;;;6212175;23;20082;-86
2023/05/02 09:56:21;;;;;;;6.65;1.42;;;10.40;99.90;;;;;;6212600;23;20024;-87
2023/05/02 09:58:47;;;;;;;10.60;1.40;;;10.60;99.90;;;;;;6213404;23;20405;-87
2023/05/02 10:01:15;;;;;;;7.50;0.95;;;10.60;99.90;;;;;;6212584;23;20123;-88
2023/05/02 10:03:45;;;;;;;7.15;1.35;;;10.90;99.90;;;;;;6213901;23;20016;-88
2023/05/02 10:06:16;;;;;;;8.07;1.17;;;10.30;99.90;;;;;;6213231;23;20095;-88
2023/05/02 10:08:44;;;;;;;7.20;1.15;;;10.10;99.90;;;;;;6212729;23;20017;-86
2023/05/02 10:11:11;;;;;;;8.10;1.20;;;10.20;99.90;;;;;;6213482;23;20016;-86
2023/05/02 10:13:39;;;;;;;8.50;1.48;;;10.20;99.90;;;;;;6213146;23;20454;-87
2023/05/02 10:16:06;;;;;;;9.88;1.10;;;10.30;99.90;;;;;;6212804;23;20046;-87
2023/05/02 10:18:38;;;;;;;13.35;1.42;;;10.40;99.90;;;;;;6213639;23;20004;-88
2023/05/02 10:21:10;;;;;;;6.80;1.23;;;10.50;99.90;;;;;;6209012;23;20027;-86
2023/05/02 10:23:40;;;;;;;7.40;1.05;;;10.60;99.90;;;;;;6237250;23;20012;-87
2023/05/02 10:26:06;;;;;;;4.85;1.00;;;10.80;99.90;;;;;;6212287;23;20027;-87
2023/05/02 10:28:33;;;;;;;10.82;1.95;;;11.00;99.90;;;;;;6213014;23;20058;-87
2023/05/02 10:31:01;;;;;;;5.25;1.10;;;10.90;99.90;;;;;;6213495;23;20035;-87
2023/05/02 10:33:28;;;;;;;8.18;1.30;;;10.90;99.90;;;;;;6212532;23;20012;-87
2023/05/02 10:35:54;;;;;;;10.35;1.30;;;10.80;99.90;;;;;;6212234;23;20016;-87
2023/05/02 10:38:21;;;;;;;7.78;1.23;;;10.70;99.90;;;;;;6213370;23;20119;-88
2023/05/02 10:40:54;;;;;;;10.93;1.23;;;10.70;99.90;;;;;;6213804;23;20016;-88
2023/05/02 10:43:23;;;;;;;15.88;1.42;;;11.10;99.90;;;;;;6212791;23;20361;-87
2023/05/02 10:45:50;;;;;;;7.22;1.23;;;11.30;99.90;;;;;;6239160;23;20085;-87
2023/05/02 10:48:25;;;;;;;6.03;1.35;;;11.60;99.90;;;;;;6213986;23;20318;-87
2023/05/02 10:50:54;;;;;;;5.18;1.20;;;11.60;99.90;;;;;;6212396;23;20016;-88
2023/05/02 10:53:35;;;;;;;8.32;1.08;;;11.50;99.90;;;;;;6214601;23;20097;-88
2023/05/02 10:56:13;;;;;;;6.28;1.30;;;11.20;99.90;;;;;;6239153;23;20074;-87
2023/05/02 10:58:40;;;;;;;9.52;1.60;;;11.10;99.90;;;;;;6214429;23;20539;-87
2023/05/02 11:01:25;;;;;;;9.50;1.55;;;10.80;99.90;;;;;;6215479;23;20016;-87
2023/05/02 11:03:59;;;;;;;11.15;1.42;;;10.60;99.90;;;;;;6239928;23;20452;-87
2023/05/02 11:06:27;;;;;;;10.98;2.15;;;10.50;99.90;;;;;;6213382;23;20004;-86
2023/05/02 11:09:22;;;;;;;11.40;1.98;;;10.40;99.90;;;;;;6215107;23;20012;-87
2023/05/02 11:11:51;;;;;;;11.45;1.65;;;10.60;99.90;;;;;;6214572;23;20091;-87
2023/05/02 11:14:24;;;;;;;10.63;2.08;;;10.90;99.90;;;;;;6214793;23;20102;-89
2023/05/02 11:17:04;;;;;;;;;;;11.20;99.90;;;;;;6215002;23;20016;-87
2023/05/02 11:19:55;;;;;;;8.32;1.30;;;11.50;99.90;;;;;;6213493;23;20351;-88
2023/05/02 11:22:23;;;;;;;8.23;1.20;;;11.90;99.90;;;;;;6213979;23;20511;-88
2023/05/02 11:24:50;;;;;;;6.18;1.08;;;12.00;99.90;;;;;;6213331;23;20030;-88
2023/05/02 11:27:28;;;;;;;10.07;1.05;;;11.90;99.90;;;;;;6214555;23;20023;-88
2023/05/02 11:29:58;;;;;;;4.22;1.30;;;11.80;99.90;;;;;;6214029;23;20016;-87
2023/05/02 11:32:45;;;;;;;6.57;1.17;;;11.70;99.90;;;;;;6213285;23;20024;-87
2023/05/02 11:35:18;;;;;;;8.50;1.05;;;11.70;99.90;;;;;;6212370;23;20019;-87
2023/05/02 11:38:02;;;;;;;4.05;1.13;;;11.60;99.90;;;;;;6239571;23;20524;-88
2023/05/02 11:40:28;;;;;;;5.82;0.80;;;11.50;99.90;;;;;;6212873;23;20048;-87
2023/05/02 11:42:57;;;;;;;4.03;0.65;;;11.40;99.90;;;;;;6213959;23;20103;-87
2023/05/02 11:45:35;;;;;;;4.75;0.88;;;11.30;99.90;;;;;;6212736;23;20041;-88
2023/05/02 11:48:03;;;;;;;6.78;0.90;;;11.30;99.90;;;;;;6214249;23;20019;-87
2023/05/02 11:50:29;;;;;;;3.08;0.63;;;11.40;99.90;;;;;;6211155;23;20016;-87
2023/05/02 11:52:56;;;;;;;7.18;0.88;;;11.50;99.90;;;;;;6238625;23;20119;-87
2023/05/02 11:55:21;;;;;;;12.05;0.90;;;11.50;99.90;;;;;;6213227;23;20097;-85
2023/05/02 11:57:47;;;;;;;3.13;0.60;;;11.40;99.90;;;;;;6213781;23;20390;-87
2023/05/02 12:00:13;;;;;;;7.07;0.95;;;11.50;99.90;;;;;;6238360;23;20439;-88
2023/05/02 12:02:41;;;;;;;2.92;0.40;;;11.40;99.90;;;;;;6213293;23;20095;-87
2023/05/02 12:05:08;;;;;;;6.65;0.75;;;11.50;99.90;;;;;;6213165;23;20344;-86
2023/05/02 12:07:39;;;;;;;1.05;0.40;;;11.60;99.90;;;;;;6212563;23;20023;-86
2023/05/02 12:10:06;;;;;;;4.20;0.40;;;11.90;99.90;;;;;;6213614;23;20466;-86
2023/05/02 12:12:32;;;;;;;2.90;0.40;;;12.00;99.90;;;;;;6212961;23;20028;-87
2023/05/02 12:15:03;;;;;;;2.85;0.50;;;12.00;99.90;;;;;;6212212;23;20469;-86
2023/05/02 12:17:30;;;;;;;6.10;0.57;;;11.80;99.90;;;;;;6212433;23;20357;-87
2023/05/02 12:19:56;;;;;;;6.15;0.80;;;11.90;99.90;;;;;;6212478;23;20286;-87
2023/05/02 12:22:24;;;;;;;10.07;0.60;;;12.20;99.90;;;;;;6211588;23;20344;-85
2023/05/02 12:24:50;;;;;;;8.23;0.63;;;12.20;99.90;;;;;;6237806;23;20024;-86
2023/05/02 12:27:16;;;;;;;4.22;0.28;;;12.10;99.90;;;;;;6213007;23;20023;-86
2023/05/02 12:29:44;;;;;;;2.85;0.60;;;12.10;99.90;;;;;;6211484;23;20445;-86
2023/05/02 12:32:10;;;;;;;3.17;0.40;;;12.30;99.90;;;;;;6212999;23;20047;-86
2023/05/02 12:34:37;;;;;;;3.78;0.52;;;12.50;99.90;;;;;;6211943;23;20049;-87
2023/05/02 12:37:04;;;;;;;2.22;0.30;;;12.60;99.90;;;;;;6212996;23;20020;-87
2023/05/02 12:39:41;;;;;;;4.82;0.60;;;12.50;99.90;;;;;;6213514;23;20234;-87
2023/05/02 12:42:10;;;;;;;3.40;0.45;;;12.10;99.90;;;;;;6213306;23;20198;-88
2023/05/02 12:44:38;;;;;;;4.60;0.60;;;12.10;99.90;;;;;;6213477;23;20039;-88
2023/05/02 12:47:04;;;;;;;4.65;0.50;;;12.30;99.90;;;;;;6214130;23;20023;-88
2023/05/02 12:49:30;;;;;;;16.58;1.45;;;12.60;99.90;;;;;;6212065;23;20020;-88
2023/05/02 12:51:56;;;;;;;2.83;0.65;;;12.70;99.90;;;;;;6212458;23;20016;-86
2023/05/02 12:54:22;;;;;;;4.75;0.50;;;12.50;99.90;;;;;;6213040;23;20099;-88
2023/05/02 12:56:50;;;;;;;3.33;0.68;;;12.20;99.90;;;;;;6212131;23;20052;-87
2023/05/02 12:59:31;;;;;;;5.85;0.90;;;12.00;99.90;;;;;;6238566;23;20016;-87
2023/05/02 13:01:57;;;;;;;9.50;1.30;;;11.90;99.90;;;;;;6213307;23;20020;-87
2023/05/02 13:04:39;;;;;;;7.38;0.98;;;11.80;99.90;;;;;;6211592;23;20499;-87
2023/05/02 13:07:06;;;;;;;4.15;1.15;;;11.70;99.90;;;;;;6212091;23;20016;-87
2023/05/02 13:09:32;;;;;;;4.97;0.85;;;11.70;99.90;;;;;;6213952;22;20437;-87
2023/05/02 13:11:58;;;;;;;9.45;0.82;;;11.60;99.90;;;;;;6217703;22;20106;-88
2023/05/02 13:14:24;;;;;;;3.67;0.60;;;11.50;99.90;;;;;;6243706;22;20015;-87
2023/05/02 13:16:52;;;;;;;4.10;0.75;;;11.60;99.90;;;;;;6243852;22;20019;-86
2023/05/02 13:19:18;;;;;;;4.55;0.60;;;11.50;99.90;;;;;;6219797;22;20016;-89
2023/05/02 13:21:44;;;;;;;8.27;1.08;;;11.40;99.90;;;;;;6219134;22;20019;-87
2023/05/02 13:24:10;;;;;;;5.13;0.98;;;11.50;99.90;;;;;;6218233;22;20016;-86
2023/05/02 13:26:35;;;;;;;5.68;1.00;;;11.50;99.90;;;;;;6218579;22;20027;-86
2023/05/02 13:29:01;;;;;;;6.65;0.47;;;11.50;99.90;;;;;;6219338;22;20019;-86
2023/05/02 13:31:27;;;;;;;6.63;0.73;;;11.60;99.90;;;;;;6217173;22;20016;-86
2023/05/02 13:33:52;;;;;;;10.68;0.90;;;11.50;99.90;;;;;;6219401;22;20019;-86
2023/05/02 13:36:18;;;;;;;3.90;0.60;;;11.60;99.90;;;;;;6217515;22;20108;-87
2023/05/02 13:38:44;;;;;;;5.00;0.93;;;11.70;99.90;;;;;;6218494;22;20034;-86
2023/05/02 13:41:13;;;;;;;4.13;0.60;;;11.70;99.90;;;;;;6218917;22;20351;-88
2023/05/02 13:43:39;;;;;;;4.63;0.70;;;11.70;99.90;;;;;;6218865;22;20069;-86
2023/05/02 13:46:05;;;;;;;6.10;0.50;;;11.70;99.90;;;;;;6218673;22;20026;-88
2023/05/02 13:48:30;;;;;;;5.40;0.63;;;11.80;99.90;;;;;;6218980;22;20020;-87
2023/05/02 13:50:56;;;;;;;3.75;0.63;;;11.90;99.90;;;;;;6219321;22;20015;-87
2023/05/02 13:53:22;;;;;;;3.90;0.70;;;11.90;99.90;;;;;;6218479;22;20044;-86
2023/05/02 13:55:47;;;;;;;2.83;0.50;;;12.00;99.90;;;;;;6218634;22;20069;-86
2023/05/02 13:58:13;;;;;;;6.20;0.80;;;12.00;99.90;;;;;;6218039;22;20043;-86
2023/05/02 14:00:39;;;;;;;4.95;0.80;;;12.10;99.90;;;;;;6215687;22;20423;-85
2023/05/02 14:03:05;;;;;;;3.40;0.52;;;12.30;99.90;;;;;;6245408;22;20016;-85
2023/05/02 14:05:35;;;;;;;4.63;0.63;;;12.40;99.90;;;;;;6218335;22;20027;-87
2023/05/02 14:08:01;;;;;;;2.60;0.50;;;12.50;99.90;;;;;;6220870;22;20020;-87
2023/05/02 14:10:26;;;;;;;5.88;0.60;;;12.40;99.90;;;;;;6215112;23;20016;-86
2023/05/02 14:12:52;;;;;;;5.68;0.55;;;12.20;99.90;;;;;;6215563;23;20016;-86
2023/05/02 14:15:18;;;;;;;4.75;0.60;;;12.20;99.90;;;;;;6216222;23;20095;-87
2023/05/02 14:17:43;;;;;;;3.50;0.60;;;12.30;99.90;;;;;;6214318;23;20027;-85